Time;durP1;ratioP1;P1;durP2;ratioP2;P2;SDS_P1;SDS_P2;PMS_P1;PMS_P2;Temp;Humidity;BMP_temperature;BMP_pressure;BME280_temperature;BME280_humidity;BME280_pressure;Samples;Min_cycle;Max_cycle;Signal;HPM_P1;HPM_P2
2022/07/10 00:02:14;;;;;;;25.10;11.77;;;;;;;;;;5112277;28;20043;-96
2022/07/10 00:04:40;;;;;;;25.47;11.73;;;;;;;;;;5074888;28;20047;-84
2022/07/10 00:07:06;;;;;;;26.00;12.40;;;;;;;;;;5110655;28;20581;-90
2022/07/10 00:09:32;;;;;;;31.43;12.60;;;;;;;;;;5127156;28;20054;-88
2022/07/10 00:11:58;;;;;;;33.03;13.25;;;;;;;;;;5109355;28;20039;-87
2022/07/10 00:14:24;;;;;;;34.47;12.50;;;;;;;;;;5087731;28;20035;-87
2022/07/10 00:16:50;;;;;;;34.87;13.47;;;;;;;;;;5087754;28;20039;-86
2022/07/10 00:19:15;;;;;;;34.92;14.60;;;;;;;;;;5104944;28;20075;-87
2022/07/10 00:21:41;;;;;;;31.47;13.27;;;;;;;;;;5127293;28;20027;-88
2022/07/10 00:24:10;;;;;;;47.87;13.97;;;;;;;;;;5114037;28;20049;-87
2022/07/10 00:26:36;;;;;;;45.25;16.95;;;;;;;;;;5112053;28;20106;-89
2022/07/10 00:29:01;;;;;;;45.13;17.30;;;;;;;;;;5094875;28;20036;-88
2022/07/10 00:31:27;;;;;;;38.03;13.03;;;;;;;;;;5115547;28;20463;-92
2022/07/10 00:33:53;;;;;;;29.57;13.10;;;;;;;;;;5119066;28;20069;-96
2022/07/10 00:36:19;;;;;;;32.63;13.93;;;;;;;;;;5101551;28;20035;-90
2022/07/10 00:38:45;;;;;;;27.67;13.63;;;;;;;;;;5099263;28;20076;-91
2022/07/10 00:41:11;;;;;;;43.10;15.07;;;;;;;;;;5116028;28;20032;-93
2022/07/10 00:43:59;;;;;;;32.47;16.00;;;;;;;;;;5116909;28;20038;-92
2022/07/10 00:46:26;;;;;;;38.58;16.90;;;;;;;;;;5114873;28;20036;-87
2022/07/10 00:48:53;;;;;;;52.90;18.02;;;;;;;;;;5113488;28;20039;-96
2022/07/10 00:51:20;;;;;;;36.15;15.57;;;;;;;;;;5068122;28;20650;-95
2022/07/10 00:53:49;;;;;;;49.80;15.75;;;;;;;;;;5091405;28;20504;-90
2022/07/10 00:56:16;;;;;;;32.00;14.93;;;;;;;;;;5066808;28;20494;-96
2022/07/10 00:58:43;;;;;;;30.67;14.20;;;;;;;;;;5099760;28;20047;-96
2022/07/10 01:01:09;;;;;;;36.22;14.25;;;;;;;;;;5065211;28;20039;-90
2022/07/10 01:03:36;;;;;;;31.88;13.90;;;;;;;;;;5100788;28;20032;-90
2022/07/10 01:06:02;;;;;;;30.70;14.90;;;;;;;;;;5102957;28;20553;-89
2022/07/10 01:08:28;;;;;;;31.48;12.10;;;;;;;;;;5082690;28;20059;-89
2022/07/10 01:10:55;;;;;;;34.80;14.63;;;;;;;;;;5096219;28;20444;-90
2022/07/10 01:13:21;;;;;;;39.13;16.75;;;;;;;;;;5071414;28;20522;-90
2022/07/10 01:15:48;;;;;;;37.63;16.80;;;;;;;;;;5098335;28;20071;-89
2022/07/10 01:18:16;;;;;;;35.17;16.35;;;;;;;;;;5077298;28;20040;-89
2022/07/10 01:20:42;;;;;;;31.63;13.02;;;;;;;;;;5096059;28;20046;-90
2022/07/10 01:23:12;;;;;;;28.83;12.17;;;;;;;;;;5063651;28;20023;-89
2022/07/10 01:25:38;;;;;;;34.00;11.98;;;;;;;;;;5095716;28;20047;-89
2022/07/10 01:28:05;;;;;;;23.43;11.93;;;;;;;;;;5094502;28;20505;-93
2022/07/10 01:30:31;;;;;;;29.77;14.00;;;;;;;;;;5094862;28;20094;-89
2022/07/10 01:32:58;;;;;;;33.03;15.07;;;;;;;;;;5077699;28;20409;-87
2022/07/10 01:35:24;;;;;;;39.55;16.55;;;;;;;;;;5098969;28;20052;-88
2022/07/10 01:37:50;;;;;;;34.80;17.03;;;;;;;;;;5094787;28;20098;-89
2022/07/10 01:40:16;;;;;;;38.80;18.63;;;;;;;;;;5060296;28;20043;-88
2022/07/10 01:42:43;;;;;;;37.47;17.40;;;;;;;;;;5094386;28;20015;-89
2022/07/10 01:45:09;;;;;;;32.80;16.98;;;;;;;;;;5095139;28;20044;-89
2022/07/10 01:47:36;;;;;;;42.15;18.73;;;;;;;;;;5077946;28;20039;-95
2022/07/10 01:50:03;;;;;;;49.13;26.20;;;;;;;;;;5095656;28;20044;-89
2022/07/10 01:52:29;;;;;;;35.05;18.13;;;;;;;;;;5093980;28;20093;-88
2022/07/10 01:54:55;;;;;;;39.80;17.63;;;;;;;;;;5088108;28;20123;-87
2022/07/10 01:57:21;;;;;;;33.88;18.02;;;;;;;;;;5098860;28;20412;-89
2022/07/10 01:59:47;;;;;;;38.20;18.48;;;;;;;;;;5077388;28;20139;-89
2022/07/10 02:02:13;;;;;;;37.67;20.57;;;;;;;;;;5094791;28;20055;-89
2022/07/10 02:04:42;;;;;;;47.33;23.07;;;;;;;;;;5060879;28;20093;-88
2022/07/10 02:07:11;;;;;;;39.58;23.67;;;;;;;;;;5092682;28;20544;-88
2022/07/10 02:09:41;;;;;;;47.10;25.15;;;;;;;;;;5055062;28;20067;-96
2022/07/10 02:12:07;;;;;;;46.33;24.98;;;;;;;;;;5085342;28;20040;-89
2022/07/10 02:14:33;;;;;;;49.75;26.42;;;;;;;;;;5075161;28;20035;-89
2022/07/10 02:17:03;;;;;;;52.20;28.83;;;;;;;;;;5061969;28;20516;-88
2022/07/10 02:19:29;;;;;;;54.17;29.80;;;;;;;;;;5060762;28;20567;-89
2022/07/10 02:21:55;;;;;;;55.53;30.15;;;;;;;;;;5093540;28;20035;-89
2022/07/10 02:24:22;;;;;;;52.00;30.63;;;;;;;;;;5058408;28;20522;-89
2022/07/10 02:26:48;;;;;;;58.60;27.73;;;;;;;;;;5078039;28;20575;-88
2022/07/10 02:29:14;;;;;;;41.92;25.35;;;;;;;;;;5075329;28;20421;-89
2022/07/10 02:31:42;;;;;;;49.20;23.63;;;;;;;;;;5057786;28;20038;-89
2022/07/10 02:34:13;;;;;;;43.50;23.58;;;;;;;;;;5075510;28;20044;-89
2022/07/10 02:36:39;;;;;;;44.03;23.50;;;;;;;;;;5079080;28;20180;-89
2022/07/10 02:39:05;;;;;;;48.30;21.80;;;;;;;;;;5076224;28;20599;-88
2022/07/10 02:41:31;;;;;;;;;;;;;;;;;;5074570;28;20081;-89
2022/07/10 02:43:57;;;;;;;29.38;18.08;;;;;;;;;;5061701;28;19911;-89
2022/07/10 02:46:23;;;;;;;37.50;20.20;;;;;;;;;;5093668;28;20028;-89
2022/07/10 02:48:49;;;;;;;37.57;18.90;;;;;;;;;;5094316;28;20119;-88
2022/07/10 02:51:15;;;;;;;40.17;18.85;;;;;;;;;;5091465;28;20066;-89
2022/07/10 02:53:41;;;;;;;40.03;18.33;;;;;;;;;;5092939;28;20024;-89
2022/07/10 02:56:08;;;;;;;36.03;17.60;;;;;;;;;;5091831;28;20077;-87
2022/07/10 02:58:34;;;;;;;37.33;18.70;;;;;;;;;;5081560;28;20039;-89
2022/07/10 03:01:00;;;;;;;37.33;19.80;;;;;;;;;;5091413;28;20028;-88
2022/07/10 03:03:26;;;;;;;38.53;21.37;;;;;;;;;;5091288;28;20080;-91
2022/07/10 03:05:52;;;;;;;45.90;18.17;;;;;;;;;;5075013;28;20056;-90
2022/07/10 03:08:18;;;;;;;39.27;20.43;;;;;;;;;;5061817;28;20079;-89
2022/07/10 03:10:44;;;;;;;37.23;19.90;;;;;;;;;;5074749;28;20024;-89
2022/07/10 03:13:10;;;;;;;36.33;19.07;;;;;;;;;;5074697;28;20297;-89
2022/07/10 03:15:36;;;;;;;35.33;17.63;;;;;;;;;;5091231;28;20109;-91
2022/07/10 03:18:02;;;;;;;36.17;18.33;;;;;;;;;;5091448;28;20032;-89
2022/07/10 03:20:28;;;;;;;33.27;18.67;;;;;;;;;;5074050;28;20048;-89
2022/07/10 03:22:54;;;;;;;29.80;17.33;;;;;;;;;;5057978;28;20289;-90
2022/07/10 03:25:20;;;;;;;34.07;15.60;;;;;;;;;;5092379;28;20040;-88
2022/07/10 03:27:45;;;;;;;26.57;16.60;;;;;;;;;;5091593;28;20802;-89
2022/07/10 03:30:11;;;;;;;27.80;15.60;;;;;;;;;;5058614;28;20038;-89
2022/07/10 03:32:37;;;;;;;34.97;15.50;;;;;;;;;;5090857;28;20039;-90
2022/07/10 03:35:04;;;;;;;29.60;16.53;;;;;;;;;;5074730;28;20039;-89
2022/07/10 03:37:30;;;;;;;30.83;15.45;;;;;;;;;;5091896;28;20040;-89
2022/07/10 03:39:56;;;;;;;27.00;16.37;;;;;;;;;;5095941;28;20116;-89
2022/07/10 03:42:22;;;;;;;34.33;15.95;;;;;;;;;;5112163;28;20040;-89
2022/07/10 03:44:48;;;;;;;33.08;16.02;;;;;;;;;;5105453;28;20039;-89
2022/07/10 03:47:14;;;;;;;36.07;16.87;;;;;;;;;;5073628;28;20032;-88
2022/07/10 03:49:41;;;;;;;27.07;16.13;;;;;;;;;;5091269;28;20051;-89
2022/07/10 03:52:07;;;;;;;30.20;16.30;;;;;;;;;;5073680;28;20036;-90
2022/07/10 03:54:34;;;;;;;31.00;15.65;;;;;;;;;;5090728;28;20596;-89
2022/07/10 03:59:45;;;;;;;31.25;15.73;;;;;;;;;;5090548;28;20048;-87
2022/07/10 04:02:11;;;;;;;33.45;17.67;;;;;;;;;;5090010;28;20513;-92
2022/07/10 04:04:37;;;;;;;43.77;17.33;;;;;;;;;;5053525;28;20076;-87
2022/07/10 04:07:04;;;;;;;32.87;15.50;;;;;;;;;;5053501;28;20151;-87
2022/07/10 04:09:30;;;;;;;39.50;17.38;;;;;;;;;;5069823;28;20040;-88
2022/07/10 04:11:56;;;;;;;37.65;16.52;;;;;;;;;;5084304;28;20093;-87
2022/07/10 04:14:22;;;;;;;46.40;18.83;;;;;;;;;;5090001;28;20036;-87
2022/07/10 04:16:48;;;;;;;41.70;17.73;;;;;;;;;;5070179;28;20072;-87
2022/07/10 04:19:15;;;;;;;39.05;17.50;;;;;;;;;;5070012;28;20569;-86
2022/07/10 04:21:40;;;;;;;;;;;;;;;;;;5093537;28;20089;-86
2022/07/10 04:24:06;;;;;;;46.65;19.88;;;;;;;;;;5110173;28;19911;-87
2022/07/10 04:26:32;;;;;;;54.93;20.70;;;;;;;;;;5081989;28;20032;-87
2022/07/10 04:28:58;;;;;;;52.15;22.20;;;;;;;;;;5087918;28;20114;-87
2022/07/10 04:31:25;;;;;;;49.88;19.90;;;;;;;;;;5103870;28;20077;-86
2022/07/10 04:33:51;;;;;;;49.85;20.75;;;;;;;;;;5115115;28;20062;-88
2022/07/10 04:36:18;;;;;;;43.97;21.60;;;;;;;;;;5115438;28;20028;-88
2022/07/10 04:38:43;;;;;;;;;;;;;;;;;;5098276;28;20056;-87
2022/07/10 04:41:09;;;;;;;46.28;20.38;;;;;;;;;;5094599;28;20355;-95
2022/07/10 04:43:36;;;;;;;43.45;23.88;;;;;;;;;;5095609;28;20525;-86
2022/07/10 04:46:02;;;;;;;58.53;25.03;;;;;;;;;;5093999;28;20054;-87
2022/07/10 04:48:27;;;;;;;39.00;22.07;;;;;;;;;;5095026;28;20040;-87
2022/07/10 04:50:54;;;;;;;43.80;23.40;;;;;;;;;;5095558;28;20028;-87
2022/07/10 04:53:20;;;;;;;54.90;25.90;;;;;;;;;;5095023;28;20047;-87
2022/07/10 04:55:46;;;;;;;54.03;25.25;;;;;;;;;;5077048;28;20429;-87
2022/07/10 04:58:12;;;;;;;46.80;25.67;;;;;;;;;;5060740;28;20040;-88
2022/07/10 05:00:38;;;;;;;55.93;25.73;;;;;;;;;;5093337;28;20286;-88
2022/07/10 05:03:03;;;;;;;45.93;26.03;;;;;;;;;;5093773;28;20525;-88
2022/07/10 05:05:29;;;;;;;50.13;25.23;;;;;;;;;;5113366;28;20068;-89
2022/07/10 05:07:55;;;;;;;54.70;27.15;;;;;;;;;;5055796;28;20545;-88
2022/07/10 05:10:22;;;;;;;57.88;28.48;;;;;;;;;;5036266;28;20061;-88
2022/07/10 05:12:48;;;;;;;;;;;;;;;;;;5054285;28;20043;-92
2022/07/10 05:15:14;;;;;;;48.58;27.17;;;;;;;;;;5014499;28;20297;-92
2022/07/10 05:17:43;;;;;;;50.97;26.17;;;;;;;;;;5036057;28;20040;-92
2022/07/10 05:20:10;;;;;;;48.08;26.80;;;;;;;;;;5020435;28;20110;-93
2022/07/10 05:22:36;;;;;;;51.50;26.50;;;;;;;;;;5021123;28;20029;-91
2022/07/10 05:25:02;;;;;;;54.77;27.00;;;;;;;;;;5038298;28;20067;-93
2022/07/10 05:27:28;;;;;;;;;;;;;;;;;;5022379;28;20033;-92
2022/07/10 05:29:55;;;;;;;36.50;23.25;;;;;;;;;;5021503;28;19923;-92
2022/07/10 05:32:21;;;;;;;46.78;23.80;;;;;;;;;;5054204;28;20139;-93
2022/07/10 05:34:48;;;;;;;47.05;24.45;;;;;;;;;;5004964;28;20417;-92
2022/07/10 05:37:14;;;;;;;42.17;24.48;;;;;;;;;;5005034;28;20040;-94
2022/07/10 05:39:41;;;;;;;48.22;25.58;;;;;;;;;;5020884;28;20077;-95
2022/07/10 05:42:07;;;;;;;51.47;27.13;;;;;;;;;;5022045;28;20028;-94
2022/07/10 05:44:33;;;;;;;57.37;28.13;;;;;;;;;;5042236;28;20148;-93
2022/07/10 05:46:59;;;;;;;60.28;27.38;;;;;;;;;;5061142;28;20055;-94
2022/07/10 05:49:25;;;;;;;50.58;26.95;;;;;;;;;;5062711;28;20156;-92
2022/07/10 05:51:51;;;;;;;51.77;27.80;;;;;;;;;;5078489;28;20106;-93
2022/07/10 05:54:17;;;;;;;60.90;29.88;;;;;;;;;;5062709;28;20286;-93
2022/07/10 05:56:44;;;;;;;63.05;32.92;;;;;;;;;;5061382;28;20073;-92
2022/07/10 05:59:10;;;;;;;75.97;32.33;;;;;;;;;;5094505;28;20419;-88
2022/07/10 06:01:36;;;;;;;68.13;30.97;;;;;;;;;;5090566;28;20032;-87
2022/07/10 06:04:03;;;;;;;67.83;30.70;;;;;;;;;;5075353;28;20028;-91
2022/07/10 06:06:29;;;;;;;62.00;30.27;;;;;;;;;;5074349;28;20107;-91
2022/07/10 06:08:55;;;;;;;64.10;33.17;;;;;;;;;;5095232;28;20056;-90
2022/07/10 06:11:21;;;;;;;70.35;33.08;;;;;;;;;;5093308;28;20281;-91
2022/07/10 06:13:46;;;;;;;68.20;34.93;;;;;;;;;;5091214;28;20042;-89
2022/07/10 06:16:12;;;;;;;62.60;31.53;;;;;;;;;;5091502;28;20267;-86
2022/07/10 06:18:38;;;;;;;65.90;33.20;;;;;;;;;;5091226;28;20035;-85
2022/07/10 06:21:04;;;;;;;57.35;31.45;;;;;;;;;;5073644;28;20028;-85
2022/07/10 06:23:37;;;;;;;58.10;32.33;;;;;;;;;;5092737;28;20066;-93
2022/07/10 06:26:03;;;;;;;68.32;33.40;;;;;;;;;;5094423;28;20044;-86
2022/07/10 06:28:29;;;;;;;73.25;33.08;;;;;;;;;;5081339;28;20023;-85
2022/07/10 06:30:54;;;;;;;55.23;30.57;;;;;;;;;;5089799;28;20028;-86
2022/07/10 06:33:20;;;;;;;50.33;30.20;;;;;;;;;;5073969;28;20028;-90
2022/07/10 06:35:46;;;;;;;49.83;30.17;;;;;;;;;;5090472;28;20301;-87
2022/07/10 06:38:13;;;;;;;58.33;30.90;;;;;;;;;;5077512;28;20032;-96
2022/07/10 06:40:41;;;;;;;75.90;32.30;;;;;;;;;;5096047;28;20048;-95
2022/07/10 06:43:07;;;;;;;67.78;33.50;;;;;;;;;;5096548;28;20082;-90
2022/07/10 06:45:33;;;;;;;64.33;33.03;;;;;;;;;;5092280;28;20122;-83
2022/07/10 06:48:00;;;;;;;63.17;33.77;;;;;;;;;;5092982;28;20024;-96
2022/07/10 06:50:29;;;;;;;54.05;31.83;;;;;;;;;;5097808;28;20040;-85
2022/07/10 06:52:55;;;;;;;59.88;31.77;;;;;;;;;;5093456;28;20501;-95
2022/07/10 06:55:21;;;;;;;58.22;31.55;;;;;;;;;;5097002;28;20073;-86
2022/07/10 06:57:47;;;;;;;62.47;29.35;;;;;;;;;;5098492;28;20044;-86
2022/07/10 07:00:15;;;;;;;46.53;28.40;;;;;;;;;;5102492;28;20514;-85
2022/07/10 07:02:41;;;;;;;46.35;25.25;;;;;;;;;;5095554;28;20028;-90
2022/07/10 07:05:07;;;;;;;55.53;24.13;;;;;;;;;;5106904;28;20515;-88
2022/07/10 07:07:34;;;;;;;49.47;23.95;;;;;;;;;;5109859;28;20024;-86
2022/07/10 07:10:00;;;;;;;;;;;;;;;;;;5099846;28;20570;-87
2022/07/10 07:12:25;;;;;;;59.60;24.38;;;;;;;;;;5094041;28;19912;-86
2022/07/10 07:14:51;;;;;;;57.63;22.97;;;;;;;;;;5071266;28;20067;-87
2022/07/10 07:17:33;;;;;;;49.80;24.83;;;;;;;;;;5098728;28;20285;-87
2022/07/10 07:25:28;;;;;;;46.15;22.60;;;;;;;;;;5075920;28;20389;-88
2022/07/10 07:27:54;;;;;;;38.00;22.50;;;;;;;;;;5123331;27;20089;-85
2022/07/10 07:30:20;;;;;;;34.73;20.77;;;;;;;;;;5076391;28;20432;-86
2022/07/10 07:32:47;;;;;;;40.08;20.90;;;;;;;;;;5092379;28;20332;-86
2022/07/10 07:35:14;;;;;;;39.25;22.23;;;;;;;;;;5091654;28;20036;-86
2022/07/10 07:37:48;;;;;;;40.65;22.13;;;;;;;;;;5068405;28;20039;-86
2022/07/10 07:40:15;;;;;;;39.08;21.10;;;;;;;;;;5091529;28;20081;-85
2022/07/10 07:42:41;;;;;;;47.20;21.17;;;;;;;;;;5089527;28;20106;-85
2022/07/10 07:45:09;;;;;;;33.33;20.80;;;;;;;;;;5094282;28;20494;-85
2022/07/10 07:47:48;;;;;;;40.83;22.85;;;;;;;;;;5059953;28;20520;-86
2022/07/10 07:50:15;;;;;;;49.58;23.60;;;;;;;;;;5091842;28;20039;-87
2022/07/10 07:52:40;;;;;;;44.67;22.73;;;;;;;;;;5079824;28;20485;-85
2022/07/10 07:55:07;;;;;;;44.10;22.98;;;;;;;;;;5088168;28;20092;-88
2022/07/10 07:57:32;;;;;;;64.70;25.98;;;;;;;;;;5091547;28;20501;-89
2022/07/10 07:59:58;;;;;;;48.22;23.67;;;;;;;;;;5098487;28;20130;-94
2022/07/10 08:02:25;;;;;;;35.60;22.45;;;;;;;;;;5107886;28;20039;-94
2022/07/10 08:04:51;;;;;;;42.83;22.65;;;;;;;;;;5093153;28;20036;-85
2022/07/10 08:07:17;;;;;;;44.75;22.85;;;;;;;;;;5109848;28;20039;-85
2022/07/10 08:09:44;;;;;;;61.63;23.58;;;;;;;;;;5105403;28;20093;-86
2022/07/10 08:12:10;;;;;;;64.13;21.25;;;;;;;;;;5113919;27;20059;-86
2022/07/10 08:14:36;;;;;;;44.45;19.25;;;;;;;;;;5099536;28;20489;-87
2022/07/10 08:17:02;;;;;;;41.83;19.67;;;;;;;;;;5097059;28;20053;-87
2022/07/10 08:19:28;;;;;;;51.53;21.13;;;;;;;;;;5095741;28;20044;-87
2022/07/10 08:21:54;;;;;;;49.60;20.40;;;;;;;;;;5096702;28;20050;-85
2022/07/10 08:24:20;;;;;;;48.92;19.95;;;;;;;;;;5077518;28;20497;-85
2022/07/10 08:26:46;;;;;;;54.13;18.35;;;;;;;;;;5095574;28;20058;-88
2022/07/10 08:29:12;;;;;;;60.78;18.70;;;;;;;;;;5096986;28;20039;-93
2022/07/10 08:36:02;;;;;;;42.45;17.48;;;;;;;;;;5058035;28;20036;-83
2022/07/10 08:38:28;;;;;;;;;;;;;;;;;;5095674;28;20059;-85
2022/07/10 08:40:59;;;;;;;50.67;19.23;;;;;;;;;;5096760;28;19912;-94
2022/07/10 08:43:25;;;;;;;41.47;17.02;;;;;;;;;;5103047;28;20036;-93
2022/07/10 08:45:55;;;;;;;72.55;20.63;;;;;;;;;;5105279;28;20036;-95
2022/07/10 08:48:24;;;;;;;37.38;17.45;;;;;;;;;;5069744;28;20039;-93
2022/07/10 08:50:56;;;;;;;43.72;18.30;;;;;;;;;;5091047;28;20051;-94
2022/07/10 08:53:44;;;;;;;37.70;17.25;;;;;;;;;;5085964;28;20612;-93
2022/07/10 08:56:25;;;;;;;40.65;16.80;;;;;;;;;;5074982;28;20036;-94
2022/07/10 08:58:53;;;;;;;35.47;16.70;;;;;;;;;;5127852;28;20073;-93
2022/07/10 09:01:22;;;;;;;42.92;15.52;;;;;;;;;;5093915;28;20040;-93
2022/07/10 09:03:51;;;;;;;38.50;17.45;;;;;;;;;;5109639;28;20023;-93
2022/07/10 09:06:17;;;;;;;36.25;16.70;;;;;;;;;;5094701;28;20036;-93
2022/07/10 09:08:58;;;;;;;29.33;16.08;;;;;;;;;;5080008;28;20039;-92
2022/07/10 09:11:26;;;;;;;39.05;16.48;;;;;;;;;;5084501;27;20103;-95
2022/07/10 09:13:57;;;;;;;33.80;16.60;;;;;;;;;;5085805;28;20035;-94
2022/07/10 09:16:24;;;;;;;29.08;16.65;;;;;;;;;;5084526;28;20515;-92
2022/07/10 09:18:50;;;;;;;44.90;16.98;;;;;;;;;;5081294;28;20078;-92
2022/07/10 09:21:18;;;;;;;34.95;16.17;;;;;;;;;;5059594;22;20048;-95
2022/07/10 09:23:44;;;;;;;26.55;15.85;;;;;;;;;;5009430;28;20033;-92
2022/07/10 09:26:10;;;;;;;27.45;14.00;;;;;;;;;;5023526;28;20516;-91
2022/07/10 09:28:36;;;;;;;28.20;14.98;;;;;;;;;;5040869;28;20114;-92
2022/07/10 09:31:02;;;;;;;39.83;14.50;;;;;;;;;;5027985;28;20037;-92
2022/07/10 09:33:30;;;;;;;52.17;14.65;;;;;;;;;;5022518;28;20509;-94
2022/07/10 09:36:05;;;;;;;30.48;14.25;;;;;;;;;;5005592;28;20457;-94
2022/07/10 09:38:40;;;;;;;29.05;13.43;;;;;;;;;;5007065;28;20036;-95
2022/07/10 09:41:14;;;;;;;28.08;13.77;;;;;;;;;;5006921;28;20517;-91
2022/07/10 09:43:56;;;;;;;29.60;14.50;;;;;;;;;;5058443;28;20029;-88
2022/07/10 09:46:28;;;;;;;31.10;14.93;;;;;;;;;;5057741;28;20041;-86
2022/07/10 09:49:11;;;;;;;30.00;15.95;;;;;;;;;;5060699;28;20048;-85
2022/07/10 09:51:39;;;;;;;38.83;15.65;;;;;;;;;;5039734;28;20056;-86
2022/07/10 09:54:06;;;;;;;48.95;16.95;;;;;;;;;;5042504;28;20041;-86
2022/07/10 09:56:50;;;;;;;41.10;15.63;;;;;;;;;;5054688;28;20036;-85
2022/07/10 09:59:18;;;;;;;51.60;15.77;;;;;;;;;;5019280;28;20055;-85
2022/07/10 10:01:49;;;;;;;35.88;15.80;;;;;;;;;;5020713;28;20459;-88
2022/07/10 10:04:16;;;;;;;40.38;15.35;;;;;;;;;;5018689;28;20457;-87
2022/07/10 10:06:42;;;;;;;43.58;16.13;;;;;;;;;;5019279;28;20055;-93
2022/07/10 10:09:25;;;;;;;39.42;16.10;;;;;;;;;;5036287;28;20039;-87
2022/07/10 10:11:56;;;;;;;41.58;15.35;;;;;;;;;;5015479;28;20037;-88
2022/07/10 10:14:23;;;;;;;32.40;13.80;;;;;;;;;;5034045;28;20384;-95
2022/07/10 10:16:49;;;;;;;41.60;15.52;;;;;;;;;;5004028;28;20041;-89
2022/07/10 10:22:01;;;;;;;25.90;11.57;;;;;;;;;;5053626;28;20041;-90
2022/07/10 10:24:30;;;;;;;59.40;14.73;;;;;;;;;;5001879;28;20041;-88
2022/07/10 10:26:56;;;;;;;30.48;14.73;;;;;;;;;;5046686;28;20450;-96
2022/07/10 10:29:22;;;;;;;35.00;13.65;;;;;;;;;;5017140;28;20033;-89
2022/07/10 10:31:48;;;;;;;26.58;12.63;;;;;;;;;;5051170;28;20090;-88
2022/07/10 10:34:17;;;;;;;46.83;13.70;;;;;;;;;;5054158;28;20033;-87
2022/07/10 10:36:44;;;;;;;43.63;12.60;;;;;;;;;;5052490;28;20499;-86
2022/07/10 10:39:13;;;;;;;48.25;12.80;;;;;;;;;;5047176;28;20048;-89
2022/07/10 10:41:52;;;;;;;33.40;13.00;;;;;;;;;;5008417;28;20036;-88
2022/07/10 10:44:22;;;;;;;26.55;11.95;;;;;;;;;;5030847;28;20053;-87
2022/07/10 10:46:54;;;;;;;38.47;13.30;;;;;;;;;;5019720;28;20025;-88
2022/07/10 10:49:25;;;;;;;38.33;14.90;;;;;;;;;;5053074;28;20033;-88
2022/07/10 10:51:57;;;;;;;40.97;12.90;;;;;;;;;;5018658;28;20029;-91
2022/07/10 10:54:23;;;;;;;36.47;12.60;;;;;;;;;;5054385;28;20067;-87
2022/07/10 10:57:07;;;;;;;34.30;12.93;;;;;;;;;;5016548;28;20502;-89
2022/07/10 10:59:46;;;;;;;31.60;13.70;;;;;;;;;;5034949;28;20033;-88
2022/07/10 11:02:23;;;;;;;24.42;12.60;;;;;;;;;;5036304;28;20040;-87
2022/07/10 11:04:49;;;;;;;24.70;12.13;;;;;;;;;;5019440;28;20037;-89
2022/07/10 11:07:15;;;;;;;;;;;;;;;;;;5017220;28;20037;-88
2022/07/10 11:09:40;;;;;;;30.38;14.15;;;;;;;;;;5023788;28;20450;-83
2022/07/10 11:12:08;;;;;;;38.20;13.30;;;;;;;;;;5053237;28;20175;-86
2022/07/10 11:14:39;;;;;;;39.90;13.95;;;;;;;;;;5052255;28;20064;-93
2022/07/10 11:17:06;;;;;;;30.67;13.98;;;;;;;;;;5005477;28;20574;-92
2022/07/10 11:19:33;;;;;;;29.98;12.93;;;;;;;;;;4999000;28;20063;-93
2022/07/10 11:22:02;;;;;;;27.58;13.23;;;;;;;;;;5038564;28;20041;-90
2022/07/10 11:25:01;;;;;;;33.15;14.45;;;;;;;;;;5040570;28;20044;-86
2022/07/10 11:27:34;;;;;;;30.23;12.57;;;;;;;;;;5046739;28;20037;-88
2022/07/10 11:30:00;;;;;;;44.13;14.50;;;;;;;;;;5056646;28;20043;-88
2022/07/10 11:32:26;;;;;;;28.25;13.65;;;;;;;;;;5021778;28;20029;-89
2022/07/10 11:34:52;;;;;;;36.35;14.02;;;;;;;;;;5021448;28;20022;-91
2022/07/10 11:37:28;;;;;;;31.52;13.32;;;;;;;;;;5031652;28;20044;-92
2022/07/10 11:40:07;;;;;;;31.52;13.55;;;;;;;;;;5022701;28;20045;-91
2022/07/10 11:42:53;;;;;;;27.55;13.57;;;;;;;;;;5017418;28;20013;-94
2022/07/10 11:45:19;;;;;;;;;;;;;;;;;;5017196;28;20676;-93
2022/07/10 11:47:46;;;;;;;37.35;16.08;;;;;;;;;;5004426;28;19913;-95
2022/07/10 11:50:12;;;;;;;43.10;16.05;;;;;;;;;;5054099;28;20025;-95
2022/07/10 11:52:38;;;;;;;;;;;;;;;;;;5016973;28;20045;-94
2022/07/10 11:55:17;;;;;;;31.85;13.80;;;;;;;;;;5010039;28;19913;-95
2022/07/10 11:57:52;;;;;;;77.80;13.32;;;;;;;;;;5007467;28;20056;-94
2022/07/10 12:00:29;;;;;;;33.37;12.77;;;;;;;;;;5001598;28;20045;-92
2022/07/10 12:02:56;;;;;;;59.78;15.15;;;;;;;;;;5016222;28;20280;-93
2022/07/10 12:05:31;;;;;;;35.30;12.70;;;;;;;;;;5045656;28;20052;-94
2022/07/10 12:07:57;;;;;;;33.10;13.07;;;;;;;;;;5028191;28;20644;-92
2022/07/10 12:10:27;;;;;;;33.88;12.38;;;;;;;;;;5010866;28;20040;-94
2022/07/10 12:12:53;;;;;;;31.77;13.35;;;;;;;;;;5004119;28;20405;-96
2022/07/10 12:15:52;;;;;;;29.88;13.65;;;;;;;;;;4996150;28;20121;-96
2022/07/10 12:18:21;;;;;;;30.65;13.20;;;;;;;;;;4963586;28;20058;-93
2022/07/10 12:20:49;;;;;;;41.55;13.23;;;;;;;;;;4980817;28;20042;-94
2022/07/10 12:23:16;;;;;;;23.42;11.27;;;;;;;;;;4976773;28;20045;-93
2022/07/10 12:25:42;;;;;;;44.97;12.70;;;;;;;;;;4975889;28;20105;-94
2022/07/10 12:28:08;;;;;;;21.58;11.52;;;;;;;;;;4982507;28;20051;-95
2022/07/10 12:30:38;;;;;;;40.40;13.88;;;;;;;;;;4984218;28;21238;-94
2022/07/10 12:33:08;;;;;;;37.45;13.38;;;;;;;;;;4984963;28;20500;-93
2022/07/10 12:35:56;;;;;;;47.05;13.82;;;;;;;;;;4987377;28;20069;-93
2022/07/10 12:38:23;;;;;;;34.60;13.55;;;;;;;;;;4927481;29;20035;-96
2022/07/10 12:40:51;;;;;;;57.25;13.27;;;;;;;;;;4889528;29;20063;-92
2022/07/10 12:43:26;;;;;;;45.92;13.55;;;;;;;;;;4920010;29;20047;-95
2022/07/10 12:46:15;;;;;;;32.67;13.80;;;;;;;;;;4919503;29;20043;-94
2022/07/10 12:49:03;;;;;;;32.50;14.70;;;;;;;;;;4938621;29;20031;-92
2022/07/10 12:51:30;;;;;;;35.78;13.27;;;;;;;;;;4923008;29;20525;-89
2022/07/10 12:53:56;;;;;;;28.50;13.77;;;;;;;;;;4918833;28;20146;-93
2022/07/10 12:56:35;;;;;;;41.35;13.80;;;;;;;;;;4944859;28;20039;-92
2022/07/10 12:59:14;;;;;;;54.22;15.75;;;;;;;;;;4959417;28;20042;-90
2022/07/10 13:01:41;;;;;;;31.50;16.10;;;;;;;;;;4963141;28;20051;-95
2022/07/10 13:04:09;;;;;;;34.80;14.85;;;;;;;;;;4948367;28;20043;-90
2022/07/10 13:06:36;;;;;;;35.67;15.20;;;;;;;;;;4976199;28;20506;-91
2022/07/10 13:09:03;;;;;;;42.40;18.08;;;;;;;;;;4945716;28;20039;-96
2022/07/10 13:11:29;;;;;;;40.75;17.55;;;;;;;;;;4946205;28;20045;-92
2022/07/10 13:32:48;;;;;;;41.13;14.75;;;;;;;;;;5497815;23;20123;-95
2022/07/10 13:35:15;;;;;;;42.90;16.50;;;;;;;;;;4890375;29;20047;-94
2022/07/10 13:37:41;;;;;;;30.35;16.92;;;;;;;;;;4876003;29;20044;-96
2022/07/10 13:40:36;;;;;;;52.25;17.25;;;;;;;;;;4877506;29;20657;-93
2022/07/10 13:43:29;;;;;;;33.70;16.02;;;;;;;;;;4882683;29;20037;-96
2022/07/10 13:46:02;;;;;;;49.50;25.50;;;;;;;;;;4894573;29;20535;-93
2022/07/10 13:48:28;;;;;;;85.07;40.78;;;;;;;;;;4892053;29;20043;-96
2022/07/10 13:50:55;;;;;;;108.50;50.42;;;;;;;;;;4899632;29;20080;-95
2022/07/10 13:53:21;;;;;;;103.55;46.75;;;;;;;;;;4882228;29;20139;-92
2022/07/10 13:55:49;;;;;;;103.68;52.75;;;;;;;;;;4912074;29;20041;-94
2022/07/10 13:58:15;;;;;;;124.22;53.75;;;;;;;;;;4886787;29;20059;-94
2022/07/10 14:00:48;;;;;;;93.10;48.88;;;;;;;;;;4901835;29;20052;-96
2022/07/10 14:03:17;;;;;;;84.15;40.53;;;;;;;;;;4881676;29;20044;-96
2022/07/10 14:05:44;;;;;;;67.80;31.02;;;;;;;;;;4885949;29;20055;-93
2022/07/10 14:08:17;;;;;;;61.92;26.63;;;;;;;;;;4894491;29;20173;-96
2022/07/10 14:11:07;;;;;;;54.67;23.45;;;;;;;;;;4886552;29;20054;-95
2022/07/10 14:13:50;;;;;;;46.78;19.75;;;;;;;;;;4900932;29;20039;-94
2022/07/10 14:16:17;;;;;;;51.97;20.13;;;;;;;;;;4883876;29;20434;-94
2022/07/10 14:21:38;;;;;;;66.60;26.17;;;;;;;;;;4880108;29;20049;-95
2022/07/10 14:26:35;;;;;;;;;;;;;;;;;;4889830;29;20052;-93
2022/07/10 14:33:56;;;;;;;33.00;8.18;;;;;;;;;;4918403;29;20051;-91
2022/07/10 14:36:26;;;;;;;27.08;8.05;;;;;;;;;;4886363;29;20044;-93
2022/07/10 14:38:58;;;;;;;34.30;9.15;;;;;;;;;;4887897;29;20524;-94
2022/07/10 14:41:28;;;;;;;21.45;9.15;;;;;;;;;;4887510;29;20040;-92
2022/07/10 14:43:54;;;;;;;30.92;9.65;;;;;;;;;;4903185;29;20063;-91
2022/07/10 14:46:22;;;;;;;29.98;7.35;;;;;;;;;;4890256;29;20071;-90
2022/07/10 14:48:50;;;;;;;36.88;11.45;;;;;;;;;;4885523;29;20506;-88
2022/07/10 14:51:19;;;;;;;36.33;14.07;;;;;;;;;;4918929;29;20032;-94
2022/07/10 14:53:48;;;;;;;22.95;9.80;;;;;;;;;;4887058;29;20040;-95
2022/07/10 14:56:19;;;;;;;22.33;10.50;;;;;;;;;;4886046;29;20037;-93
2022/07/10 14:58:49;;;;;;;26.38;9.93;;;;;;;;;;4869292;29;20044;-93
2022/07/10 15:01:15;;;;;;;28.10;10.93;;;;;;;;;;4883193;29;20149;-92
2022/07/10 15:03:44;;;;;;;32.58;9.48;;;;;;;;;;4882867;29;20047;-91
2022/07/10 15:06:11;;;;;;;28.50;11.98;;;;;;;;;;4883230;29;20064;-91
2022/07/10 15:08:37;;;;;;;25.30;11.15;;;;;;;;;;4898570;29;20409;-92
2022/07/10 15:11:06;;;;;;;37.83;13.15;;;;;;;;;;4902289;29;20047;-91
2022/07/10 15:16:04;;;;;;;17.08;6.55;;;;;;;;;;4920118;29;20155;-91